Time;durP1;ratioP1;P1;durP2;ratioP2;P2;SDS_P1;SDS_P2;PMS_P1;PMS_P2;Temp;Humidity;BMP_temperature;BMP_pressure;BME280_temperature;BME280_humidity;BME280_pressure;Samples;Min_cycle;Max_cycle;Signal;HPM_P1;HPM_P2
2023/10/10 00:00:57;;;;;;;;;;;;;;;;;;6091320;23;19917;-90
2023/10/10 00:03:24;;;;;;;;;;;;;;;;;;6090872;23;20328;-89
2023/10/10 00:05:52;;;;;;;;;;;;;;;;;;6063993;23;20632;-90
2023/10/10 00:08:20;;;;;;;;;;;;;;;;;;6065933;23;20081;-90
2023/10/10 00:10:49;;;;;;;;;;;;;;;;;;6064216;23;19910;-90
2023/10/10 00:13:16;;;;;;;;;;;;;;;;;;6064768;23;19909;-91
2023/10/10 00:15:49;;;;;;;;;;;;;;;;;;6065904;23;19909;-91
2023/10/10 00:18:15;;;;;;;;;;;;;;;;;;6065768;23;20324;-90
2023/10/10 00:20:41;;;;;;;;;;;;;;;;;;6064697;23;19917;-90
2023/10/10 00:23:10;;;;;;;;;;;;;;;;;;6065415;23;20236;-90
2023/10/10 00:25:37;;;;;;;;;;;;;;;;;;6064282;23;19913;-90
2023/10/10 00:28:08;;;;;;;;;;;;;;;;;;6089703;23;20257;-89
2023/10/10 00:30:43;;;;;;;;;;;;;;;;;;6065599;23;19910;-90
2023/10/10 00:33:09;;;;;;;;;;;;;;;;;;6066521;23;19972;-90
2023/10/10 00:35:35;;;;;;;;;;;;;;;;;;6065635;23;19909;-91
2023/10/10 00:38:07;;;;;;;;;;;;;;;;;;6065469;23;19972;-91
2023/10/10 00:40:38;;;;;;;;;;;;;;;;;;6065979;23;19909;-91
2023/10/10 00:43:04;;;;;;;;;;;;;;;;;;6065972;23;19910;-91
2023/10/10 00:45:34;;;;;;;;;;;;;;;;;;6068124;23;19948;-91
2023/10/10 00:48:02;;;;;;;;;;;;;;;;;;6067993;23;20332;-91
2023/10/10 00:50:28;;;;;;;;;;;;;;;;;;6066520;23;19906;-89
2023/10/10 00:53:00;;;;;;;;;;;;;;;;;;6063595;23;19909;-90
2023/10/10 00:55:26;;;;;;;;;;;;;;;;;;6064805;23;19910;-90
2023/10/10 00:58:01;;;;;;;;;;;;;;;;;;6069601;23;19969;-94
2023/10/10 01:00:29;;;;;;;;;;;;;;;;;;6080369;23;19925;-93
2023/10/10 01:03:30;;;;;;;;;;;;;;;;;;6095188;23;19916;-93
2023/10/10 01:05:55;;;;;;;;;;;;;;;;;;6091162;23;19916;-93
2023/10/10 01:08:23;;;;;;;;;;;;;;;;;;6092329;23;20324;-94
2023/10/10 01:10:49;;;;;;;;;;;;;;;;;;6090165;23;19928;-93
2023/10/10 01:13:15;;;;;;;;;;;;;;;;;;6092302;23;19909;-93
2023/10/10 01:15:44;;;;;;;;;;;;;;;;;;6091123;23;19944;-93
2023/10/10 01:18:13;;;;;;;;;;;;;;;;;;6092245;23;19951;-92
2023/10/10 01:20:45;;;;;;;;;;;;;;;;;;6091241;23;20328;-93
2023/10/10 01:23:12;;;;;;;;;;;;;;;;;;6091634;23;19937;-92
2023/10/10 01:28:13;;;;;;;;;;;;;;;;;;6102829;23;19916;-91
2023/10/10 01:33:22;;;;;;;;;;;;;;;;;;6105195;23;19996;-94
2023/10/10 01:35:49;;;;;;;;;;;;;;;;;;6091637;23;20236;-92
2023/10/10 01:38:15;;;;;;;;;;;;;;;;;;6088976;23;19913;-92
2023/10/10 01:40:41;;;;;;;;;;;;;;;;;;6090722;23;19944;-92
2023/10/10 01:43:10;;;;;;;;;;;;;;;;;;6092217;23;19909;-92
2023/10/10 01:45:41;;;;;;;;;;;;;;;;;;6095734;23;19913;-91
2023/10/10 01:48:08;;;;;;;;;;;;;;;;;;6093997;23;19916;-92
2023/10/10 01:50:34;;;;;;;;;;;;;;;;;;6097112;23;19909;-93
2023/10/10 01:53:00;;;;;;;;;;;;;;;;;;6093867;23;19989;-92
2023/10/10 01:55:26;;;;;;;;;;;;;;;;;;6095626;23;19945;-92
2023/10/10 01:57:52;;;;;;;;;;;;;;;;;;6094589;23;19939;-92
2023/10/10 02:00:26;;;;;;;;;;;;;;;;;;6096749;23;19984;-92
2023/10/10 02:02:53;;;;;;;;;;;;;;;;;;6074677;23;19980;-91
2023/10/10 02:05:32;;;;;;;;;;;;;;;;;;6073592;23;20500;-92
2023/10/10 02:07:58;;;;;;;;;;;;;;;;;;6068872;23;19933;-93
2023/10/10 02:10:26;;;;;;;;;;;;;;;;;;6068167;23;19910;-93
2023/10/10 02:12:52;;;;;;;;;;;;;;;;;;6068426;23;19913;-93
2023/10/10 02:15:19;;;;;;;;;;;;;;;;;;6071801;23;19913;-91
2023/10/10 02:17:51;;;;;;;;;;;;;;;;;;6071011;23;20240;-93
2023/10/10 02:22:51;;;;;;;;;;;;;;;;;;6102494;23;19917;-91
2023/10/10 02:27:55;;;;;;;;;;;;;;;;;;6101870;23;19909;-93
2023/10/10 02:30:34;;;;;;;;;;;;;;;;;;6065709;23;19921;-92
2023/10/10 02:33:00;;;;;;;;;;;;;;;;;;6065830;23;19925;-93
2023/10/10 02:35:27;;;;;;;;;;;;;;;;;;6066881;23;20568;-92
2023/10/10 02:37:54;;;;;;;;;;;;;;;;;;6064376;23;19913;-92
2023/10/10 02:40:30;;;;;;;;;;;;;;;;;;6065526;23;19940;-91
2023/10/10 02:43:18;;;;;;;;;;;;;;;;;;6066389;23;19916;-93
2023/10/10 02:45:45;;;;;;;;;;;;;;;;;;6067295;23;19906;-91
2023/10/10 02:48:20;;;;;;;;;;;;;;;;;;6065757;23;20356;-93
2023/10/10 02:50:45;;;;;;;;;;;;;;;;;;6065975;23;19964;-92
2023/10/10 02:53:14;;;;;;;;;;;;;;;;;;6063599;23;19913;-92
2023/10/10 02:55:50;;;;;;;;;;;;;;;;;;6064839;23;19905;-92
2023/10/10 02:58:22;;;;;;;;;;;;;;;;;;6063431;23;19913;-91
2023/10/10 03:00:48;;;;;;;;;;;;;;;;;;6069629;23;19972;-91
2023/10/10 03:03:21;;;;;;;;;;;;;;;;;;6090790;23;19910;-93
2023/10/10 03:05:58;;;;;;;;;;;;;;;;;;6091727;23;20000;-93
2023/10/10 03:08:34;;;;;;;;;;;;;;;;;;6094045;23;19905;-94
2023/10/10 03:11:00;;;;;;;;;;;;;;;;;;6093351;23;19916;-92
2023/10/10 03:13:36;;;;;;;;;;;;;;;;;;6093547;23;20525;-92
2023/10/10 03:17:05;;;;;;;;;;;;;;;;;;6094982;23;19911;-92
2023/10/10 03:24:20;;;;;;;;;;;;;;;;;;6094017;23;19916;-90
2023/10/10 03:27:00;;;;;;;;;;;;;;;;;;6092542;23;19909;-90
2023/10/10 03:32:34;;;;;;;;;;;;;;;;;;6094989;23;20509;-90
2023/10/10 03:35:19;;;;;;;;;;;;;;;;;;6091687;23;19909;-90
2023/10/10 03:37:54;;;;;;;;;;;;;;;;;;6091081;23;20279;-92
2023/10/10 03:41:03;;;;;;;;;;;;;;;;;;6090567;23;19905;-91
2023/10/10 05:25:13;;;;;;;;;;;;;;;;;;6091143;23;19911;-90
2023/10/10 05:27:41;;;;;;;;;;;;;;;;;;6067239;23;19933;-90
2023/10/10 05:30:07;;;;;;;;;;;;;;;;;;6069225;23;19909;-89
2023/10/10 05:32:33;;;;;;;;;;;;;;;;;;6094420;23;19909;-88
2023/10/10 05:35:01;;;;;;;;;;;;;;;;;;6069006;23;19958;-89
2023/10/10 05:37:27;;;;;;;;;;;;;;;;;;6068255;23;19952;-90
2023/10/10 05:39:56;;;;;;;;;;;;;;;;;;6093292;23;20401;-89
2023/10/10 05:42:25;;;;;;;;;;;;;;;;;;6068471;23;19980;-89
2023/10/10 05:44:51;;;;;;;;;;;;;;;;;;6067659;23;19916;-89
2023/10/10 05:47:31;;;;;;;;;;;;;;;;;;6067128;23;19983;-89
2023/10/10 05:49:57;;;;;;;;;;;;;;;;;;6067432;23;19910;-90
2023/10/10 05:52:23;;;;;;;;;;;;;;;;;;6067587;23;19968;-89
2023/10/10 05:54:49;;;;;;;;;;;;;;;;;;6066996;23;19991;-89
2023/10/10 05:57:16;;;;;;;;;;;;;;;;;;6069758;23;19913;-88
2023/10/10 05:59:42;;;;;;;;;;;;;;;;;;6068022;23;20205;-88
2023/10/10 06:02:11;;;;;;;;;;;;;;;;;;6079886;23;19981;-90
2023/10/10 06:04:37;;;;;;;;;;;;;;;;;;6091022;23;19913;-90
2023/10/10 06:07:03;;;;;;;;;;;;;;;;;;6091782;23;19932;-90
2023/10/10 06:09:33;;;;;;;;;;;;;;;;;;6090466;23;20026;-90
2023/10/10 06:12:04;;;;;;;;;;;;;;;;;;6091851;23;19906;-90
2023/10/10 06:14:31;;;;;;;;;;;;;;;;;;6091888;23;19978;-90
2023/10/10 06:16:57;;;;;;;;;;;;;;;;;;6092133;23;19912;-90
2023/10/10 06:19:23;;;;;;;;;;;;;;;;;;6091372;23;19921;-90
2023/10/10 06:21:51;;;;;;;;;;;;;;;;;;6090589;23;19906;-90
2023/10/10 06:24:18;;;;;;;;;;;;;;;;;;6091325;23;19905;-91
2023/10/10 06:26:46;;;;;;;;;;;;;;;;;;6091495;23;19936;-89
2023/10/10 06:29:12;;;;;;;;;;;;;;;;;;6092153;23;20343;-89
2023/10/10 06:31:43;;;;;;;;;;;;;;;;;;6091514;23;19957;-89
2023/10/10 06:34:22;;;;;;;;;;;;;;;;;;6091375;23;19906;-89
2023/10/10 06:36:49;;;;;;;;;;;;;;;;;;6089976;23;19933;-89
2023/10/10 06:41:42;;;;;;;;;;;;;;;;;;6102773;23;19963;-89
2023/10/10 06:44:14;;;;;;;;;;;;;;;;;;6093521;23;19909;-89
2023/10/10 06:46:40;;;;;;;;;;;;;;;;;;6091148;23;19925;-89
2023/10/10 06:49:06;;;;;;;;;;;;;;;;;;6091312;23;19988;-89
2023/10/10 06:51:35;;;;;;;;;;;;;;;;;;6090004;23;19910;-89
2023/10/10 06:54:03;;;;;;;;;;;;;;;;;;6090124;23;19909;-89
2023/10/10 06:56:44;;;;;;;;;;;;;;;;;;6090697;23;19905;-89
2023/10/10 06:59:16;;;;;;;;;;;;;;;;;;6090432;23;19909;-88
2023/10/10 07:01:45;;;;;;;;;;;;;;;;;;6093134;23;19927;-89
2023/10/10 07:04:12;;;;;;;;;;;;;;;;;;6090228;23;19972;-90
2023/10/10 07:06:38;;;;;;;;;;;;;;;;;;6088674;23;19937;-90
2023/10/10 07:09:31;;;;;;;;;;;;;;;;;;4751531;27;8280067;-92
2023/10/10 07:11:57;;;;;;;;;;;;;;;;;;5009644;28;20017;-92
2023/10/10 07:14:26;;;;;;;;;;;;;;;;;;5006426;28;19925;-92
2023/10/10 07:16:56;;;;;;;;;;;;;;;;;;5005028;28;19948;-90
2023/10/10 07:19:32;;;;;;;;;;;;;;;;;;5006766;28;19921;-92
2023/10/10 07:21:59;;;;;;;;;;;;;;;;;;5010816;28;20340;-91
2023/10/10 07:24:28;;;;;;;;;;;;;;;;;;5002680;28;19913;-95
2023/10/10 07:32:17;;;;;;;;;;;;;;;;;;5023720;28;19929;-93
2023/10/10 07:34:49;;;;;;;;;;;;;;;;;;5006037;28;19921;-93
2023/10/10 07:37:15;;;;;;;;;;;;;;;;;;5007614;28;19917;-92
2023/10/10 07:40:06;;;;;;;;;;;;;;;;;;5004801;28;19922;-93
2023/10/10 07:42:35;;;;;;;;;;;;;;;;;;5018498;28;19944;-93
2023/10/10 07:45:14;;;;;;;;;;;;;;;;;;5004671;28;19920;-93
2023/10/10 07:50:27;;;;;;;;;;;;;;;;;;5023376;28;19917;-92
2023/10/10 07:52:54;;;;;;;;;;;;;;;;;;5008553;28;19948;-90
2023/10/10 07:55:22;;;;;;;;;;;;;;;;;;5005018;28;19914;-92
2023/10/10 07:57:59;;;;;;;;;;;;;;;;;;5005989;28;20374;-92
2023/10/10 08:00:39;;;;;;;;;;;;;;;;;;5005905;28;20007;-91
2023/10/10 08:03:06;;;;;;;;;;;;;;;;;;5008084;28;19913;-92
2023/10/10 08:05:35;;;;;;;;;;;;;;;;;;5005667;28;19924;-92
2023/10/10 08:08:04;;;;;;;;;;;;;;;;;;4987337;28;19926;-92
2023/10/10 08:10:37;;;;;;;;;;;;;;;;;;4989064;28;20456;-93
2023/10/10 08:13:09;;;;;;;;;;;;;;;;;;4985239;28;20413;-92
2023/10/10 08:15:48;;;;;;;;;;;;;;;;;;4984492;28;19913;-92
2023/10/10 08:18:39;;;;;;;;;;;;;;;;;;4989121;28;19954;-90
2023/10/10 08:23:27;;;;;;;;;;;;;;;;;;4986051;28;19918;-90
2023/10/10 08:25:53;;;;;;;;;;;;;;;;;;4971019;28;19917;-89
2023/10/10 08:28:22;;;;;;;;;;;;;;;;;;4972857;28;19922;-90
2023/10/10 08:30:48;;;;;;;;;;;;;;;;;;4968916;28;20437;-90
2023/10/10 08:33:17;;;;;;;;;;;;;;;;;;4975069;28;19921;-90
2023/10/10 08:35:43;;;;;;;;;;;;;;;;;;4972858;28;19921;-90
2023/10/10 08:38:19;;;;;;;;;;;;;;;;;;4970220;28;19961;-91
2023/10/10 08:40:47;;;;;;;;;;;;;;;;;;4974477;28;20028;-93
2023/10/10 08:43:21;;;;;;;;;;;;;;;;;;4987589;28;19918;-92
2023/10/10 08:45:54;;;;;;;;;;;;;;;;;;4977587;28;19949;-93
2023/10/10 08:48:26;;;;;;;;;;;;;;;;;;4972871;28;19933;-92
2023/10/10 08:50:53;;;;;;;;;;;;;;;;;;4977678;28;19918;-91
2023/10/10 08:53:20;;;;;;;;;;;;;;;;;;4972474;28;19918;-92
2023/10/10 08:55:51;;;;;;;;;;;;;;;;;;4972077;28;20306;-91
2023/10/10 08:58:18;;;;;;;;;;;;;;;;;;4973036;28;19921;-92
2023/10/10 09:00:44;;;;;;;;;;;;;;;;;;4973758;28;19922;-91
2023/10/10 09:03:13;;;;;;;;;;;;;;;;;;4975490;28;20012;-92
2023/10/10 09:05:39;;;;;;;;;;;;;;;;;;4973059;28;19921;-92
2023/10/10 09:08:06;;;;;;;;;;;;;;;;;;4972778;28;19964;-91
2023/10/10 09:10:42;;;;;;;;;;;;;;;;;;4973197;28;19918;-91
2023/10/10 09:13:09;;;;;;;;;;;;;;;;;;4970031;28;19969;-91
2023/10/10 09:15:36;;;;;;;;;;;;;;;;;;4953764;28;19915;-93
2023/10/10 09:18:05;;;;;;;;;;;;;;;;;;4947879;28;19918;-91
2023/10/10 09:20:32;;;;;;;;;;;;;;;;;;4960217;28;20390;-92
2023/10/10 09:23:04;;;;;;;;;;;;;;;;;;4956858;28;19918;-92
2023/10/10 09:25:44;;;;;;;;;;;;;;;;;;4954518;28;19925;-92
2023/10/10 09:28:16;;;;;;;;;;;;;;;;;;4958300;28;19918;-89
2023/10/10 09:30:49;;;;;;;;;;;;;;;;;;4949877;28;19918;-88
2023/10/10 09:35:53;;;;;;;;;;;;;;;;;;4964727;28;20382;-90
2023/10/10 09:38:21;;;;;;;;;;;;;;;;;;4955731;28;19977;-89
2023/10/10 09:40:48;;;;;;;;;;;;;;;;;;4950544;28;19918;-88
2023/10/10 09:43:24;;;;;;;;;;;;;;;;;;4950266;28;20061;-90
2023/10/10 09:45:55;;;;;;;;;;;;;;;;;;4954606;28;19925;-94
2023/10/10 09:54:15;;;;;;;;;;;;;;;;;;4964748;28;19940;-90
2023/10/10 09:56:41;;;;;;;;;;;;;;;;;;4949422;28;19918;-90
2023/10/10 09:59:07;;;;;;;;;;;;;;;;;;4963504;28;19930;-90
2023/10/10 10:01:44;;;;;;;;;;;;;;;;;;4948911;28;19923;-90
2023/10/10 10:04:12;;;;;;;;;;;;;;;;;;4947600;28;19914;-89
2023/10/10 10:06:38;;;;;;;;;;;;;;;;;;4950696;28;19968;-90
2023/10/10 10:09:15;;;;;;;;;;;;;;;;;;4948345;28;19936;-89
2023/10/10 10:11:43;;;;;;;;;;;;;;;;;;4945681;28;19921;-90
2023/10/10 10:14:14;;;;;;;;;;;;;;;;;;4952327;28;20298;-90
2023/10/10 10:16:55;;;;;;;;;;;;;;;;;;4963242;28;19919;-90
2023/10/10 10:19:28;;;;;;;;;;;;;;;;;;4948049;28;19979;-89
2023/10/10 10:22:05;;;;;;;;;;;;;;;;;;4949245;28;20371;-89
2023/10/10 10:24:32;;;;;;;;;;;;;;;;;;4947866;28;20382;-90
2023/10/10 10:27:00;;;;;;;;;;;;;;;;;;4954841;28;19914;-90
2023/10/10 10:29:28;;;;;;;;;;;;;;;;;;4953631;28;20357;-90
2023/10/10 10:31:57;;;;;;;;;;;;;;;;;;4949781;28;20426;-91
2023/10/10 10:34:32;;;;;;;;;;;;;;;;;;4967079;28;20646;-90
2023/10/10 10:36:59;;;;;;;;;;;;;;;;;;4951018;28;19918;-90
2023/10/10 10:39:43;;;;;;;;;;;;;;;;;;4955296;28;19914;-90
2023/10/10 10:42:12;;;;;;;;;;;;;;;;;;4950200;28;19924;-89
2023/10/10 10:44:53;;;;;;;;;;;;;;;;;;4953911;28;19918;-89
2023/10/10 10:47:21;;;;;;;;;;;;;;;;;;4951240;28;19918;-89
2023/10/10 10:49:47;;;;;;;;;;;;;;;;;;4957178;28;19974;-89
2023/10/10 10:52:17;;;;;;;;;;;;;;;;;;4955954;28;19961;-90
2023/10/10 10:54:45;;;;;;;;;;;;;;;;;;4971350;28;19921;-89
2023/10/10 10:57:27;;;;;;;;;;;;;;;;;;4956327;28;19914;-89
2023/10/10 10:59:55;;;;;;;;;;;;;;;;;;4970696;28;19966;-91
2023/10/10 11:02:24;;;;;;;;;;;;;;;;;;4965725;28;19914;-91
2023/10/10 11:04:51;;;;;;;;;;;;;;;;;;4975280;28;20331;-92
2023/10/10 11:07:26;;;;;;;;;;;;;;;;;;4961698;28;19976;-92
2023/10/10 11:10:06;;;;;;;;;;;;;;;;;;4975394;28;19929;-90
2023/10/10 11:12:32;;;;;;;;;;;;;;;;;;4973795;28;19918;-91
2023/10/10 11:14:58;;;;;;;;;;;;;;;;;;4978250;28;20365;-90
2023/10/10 11:17:26;;;;;;;;;;;;;;;;;;4982626;28;19914;-92
2023/10/10 11:19:55;;;;;;;;;;;;;;;;;;4991909;28;20357;-91
2023/10/10 11:22:39;;;;;;;;;;;;;;;;;;4981632;28;20290;-89
2023/10/10 11:25:05;;;;;;;;;;;;;;;;;;4974761;28;19914;-91
2023/10/10 11:27:33;;;;;;;;;;;;;;;;;;4988109;28;19933;-91
2023/10/10 11:30:03;;;;;;;;;;;;;;;;;;4968004;28;19918;-91
2023/10/10 11:32:36;;;;;;;;;;;;;;;;;;4971235;28;19918;-91
2023/10/10 11:35:17;;;;;;;;;;;;;;;;;;4974869;28;19918;-90
2023/10/10 11:37:47;;;;;;;;;;;;;;;;;;4972759;28;19917;-91
2023/10/10 11:40:23;;;;;;;;;;;;;;;;;;4985423;28;20297;-90
2023/10/10 11:42:49;;;;;;;;;;;;;;;;;;4976395;28;20584;-90
2023/10/10 11:45:17;;;;;;;;;;;;;;;;;;4990208;28;19956;-91
2023/10/10 11:47:47;;;;;;;;;;;;;;;;;;4978173;28;20381;-90
2023/10/10 11:50:17;;;;;;;;;;;;;;;;;;4979398;28;19918;-91
2023/10/10 11:52:56;;;;;;;;;;;;;;;;;;4997599;28;20070;-93
2023/10/10 11:55:22;;;;;;;;;;;;;;;;;;4973222;28;20394;-91
2023/10/10 11:57:49;;;;;;;;;;;;;;;;;;4982188;28;19937;-91
2023/10/10 12:00:21;;;;;;;;;;;;;;;;;;4982543;28;19949;-92
2023/10/10 12:02:48;;;;;;;;;;;;;;;;;;4981800;28;20362;-95
2023/10/10 12:05:58;;;;;;;;;;;;;;;;;;4983996;28;19925;-92
2023/10/10 12:08:06;;;;;;;;;;;;;;;;;;4991670;28;19941;-92
2023/10/10 12:13:33;;;;;;;;;;;;;;;;;;4977659;28;20437;-95
2023/10/10 12:16:00;;;;;;;;;;;;;;;;;;4978265;28;19965;-92
2023/10/10 12:18:32;;;;;;;;;;;;;;;;;;4976281;28;19943;-89
2023/10/10 12:21:06;;;;;;;;;;;;;;;;;;4975347;28;19918;-89
2023/10/10 12:23:32;;;;;;;;;;;;;;;;;;4958141;28;19921;-90
2023/10/10 12:26:08;;;;;;;;;;;;;;;;;;4958235;28;19918;-89
2023/10/10 12:28:34;;;;;;;;;;;;;;;;;;4955355;28;20009;-93
2023/10/10 12:31:03;;;;;;;;;;;;;;;;;;4961728;28;19957;-92
2023/10/10 12:33:31;;;;;;;;;;;;;;;;;;4959347;28;20342;-92
2023/10/10 12:35:57;;;;;;;;;;;;;;;;;;4958988;28;20359;-91
2023/10/10 12:38:23;;;;;;;;;;;;;;;;;;4956493;28;19922;-92
2023/10/10 12:40:56;;;;;;;;;;;;;;;;;;4957402;28;19921;-92
2023/10/10 12:43:25;;;;;;;;;;;;;;;;;;4958148;28;19929;-92
2023/10/10 12:45:51;;;;;;;;;;;;;;;;;;4956340;28;20440;-92
2023/10/10 12:48:24;;;;;;;;;;;;;;;;;;4957414;28;19979;-92
2023/10/10 12:50:53;;;;;;;;;;;;;;;;;;4954336;28;19914;-91
2023/10/10 12:53:19;;;;;;;;;;;;;;;;;;4954627;28;19995;-92
2023/10/10 12:55:52;;;;;;;;;;;;;;;;;;4956916;28;19968;-91
2023/10/10 12:58:20;;;;;;;;;;;;;;;;;;4953347;28;20374;-90
2023/10/10 13:00:52;;;;;;;;;;;;;;;;;;4956932;28;19999;-90
2023/10/10 13:03:18;;;;;;;;;;;;;;;;;;4957431;28;19930;-91
2023/10/10 13:05:47;;;;;;;;;;;;;;;;;;4955686;28;19914;-90
2023/10/10 13:08:47;;;;;;;;;;;;;;;;;;4969266;28;19926;-91
2023/10/10 13:11:14;;;;;;;;;;;;;;;;;;4984094;28;19936;-91
2023/10/10 13:13:52;;;;;;;;;;;;;;;;;;4971192;28;19928;-91
2023/10/10 13:16:52;;;;;;;;;;;;;;;;;;4976542;28;20285;-91
2023/10/10 13:19:20;;;;;;;;;;;;;;;;;;4991256;28;19969;-91
2023/10/10 13:22:02;;;;;;;;;;;;;;;;;;4986774;28;19961;-90
2023/10/10 13:24:28;;;;;;;;;;;;;;;;;;4985568;28;20061;-91
2023/10/10 13:26:54;;;;;;;;;;;;;;;;;;4975087;28;20305;-91
2023/10/10 13:29:23;;;;;;;;;;;;;;;;;;4983674;28;19946;-93
2023/10/10 13:31:49;;;;;;;;;;;;;;;;;;4976364;28;19961;-91
2023/10/10 13:34:28;;;;;;;;;;;;;;;;;;4987937;28;19961;-91
2023/10/10 13:36:54;;;;;;;;;;;;;;;;;;4969879;28;19968;-91
2023/10/10 13:39:33;;;;;;;;;;;;;;;;;;4974966;28;19917;-91
2023/10/10 13:41:59;;;;;;;;;;;;;;;;;;4976387;28;20386;-92
2023/10/10 13:44:25;;;;;;;;;;;;;;;;;;4973060;28;19921;-92
2023/10/10 13:46:52;;;;;;;;;;;;;;;;;;4971345;28;19918;-92
2023/10/10 13:49:18;;;;;;;;;;;;;;;;;;4988332;28;19922;-92
2023/10/10 13:51:45;;;;;;;;;;;;;;;;;;4973772;28;19933;-92
2023/10/10 13:54:13;;;;;;;;;;;;;;;;;;4975786;28;20381;-92
2023/10/10 13:56:43;;;;;;;;;;;;;;;;;;4974320;28;20362;-91
2023/10/10 13:59:11;;;;;;;;;;;;;;;;;;4971386;28;19936;-91
2023/10/10 14:01:53;;;;;;;;;;;;;;;;;;4972662;28;19972;-92
2023/10/10 14:04:29;;;;;;;;;;;;;;;;;;4975693;28;19935;-92
2023/10/10 14:07:00;;;;;;;;;;;;;;;;;;4972278;28;19921;-92
2023/10/10 14:09:31;;;;;;;;;;;;;;;;;;4973182;28;19961;-92
2023/10/10 14:12:03;;;;;;;;;;;;;;;;;;4978681;28;20033;-91
2023/10/10 14:14:44;;;;;;;;;;;;;;;;;;4987319;28;20475;-92
2023/10/10 14:17:12;;;;;;;;;;;;;;;;;;4970085;28;20005;-92
2023/10/10 14:20:00;;;;;;;;;;;;;;;;;;4982276;28;19917;-92
2023/10/10 14:22:25;;;;;;;;;;;;;;;;;;4988542;28;19913;-92
2023/10/10 14:24:52;;;;;;;;;;;;;;;;;;4976405;28;19944;-91
2023/10/10 14:27:20;;;;;;;;;;;;;;;;;;4968242;28;19914;-93
2023/10/10 14:29:47;;;;;;;;;;;;;;;;;;4972043;28;19918;-91
2023/10/10 14:32:14;;;;;;;;;;;;;;;;;;4986816;28;19922;-91
2023/10/10 14:34:40;;;;;;;;;;;;;;;;;;4975370;28;19914;-92
2023/10/10 14:37:06;;;;;;;;;;;;;;;;;;4971516;28;19913;-92
2023/10/10 14:39:36;;;;;;;;;;;;;;;;;;4973663;28;20511;-90
2023/10/10 14:42:01;;;;;;;;;;;;;;;;;;4970761;28;19914;-91
2023/10/10 14:44:28;;;;;;;;;;;;;;;;;;4966983;28;19917;-91
2023/10/10 14:47:04;;;;;;;;;;;;;;;;;;4971340;28;20532;-92
2023/10/10 14:49:30;;;;;;;;;;;;;;;;;;4969783;28;19918;-89
2023/10/10 14:51:56;;;;;;;;;;;;;;;;;;4968894;28;19924;-89
2023/10/10 14:54:24;;;;;;;;;;;;;;;;;;4983933;28;20052;-88
2023/10/10 14:56:50;;;;;;;;;;;;;;;;;;4966735;28;19961;-88
2023/10/10 14:59:20;;;;;;;;;;;;;;;;;;4965954;28;20281;-89
2023/10/10 15:01:55;;;;;;;;;;;;;;;;;;4981933;28;20342;-89
2023/10/10 15:04:31;;;;;;;;;;;;;;;;;;4972816;28;19942;-88
2023/10/10 15:06:57;;;;;;;;;;;;;;;;;;4970898;28;20951;-88
2023/10/10 15:09:25;;;;;;;;;;;;;;;;;;4964977;28;20236;-89
2023/10/10 15:11:51;;;;;;;;;;;;;;;;;;4947980;28;20451;-90
2023/10/10 15:14:21;;;;;;;;;;;;;;;;;;4961780;28;19914;-88
2023/10/10 15:16:58;;;;;;;;;;;;;;;;;;4962538;28;20350;-88
2023/10/10 15:19:25;;;;;;;;;;;;;;;;;;4949587;28;19929;-89
2023/10/10 15:21:51;;;;;;;;;;;;;;;;;;4947461;28;20280;-89
2023/10/10 15:24:17;;;;;;;;;;;;;;;;;;4954105;28;20353;-89
2023/10/10 15:26:47;;;;;;;;;;;;;;;;;;4953727;28;19918;-89
2023/10/10 15:29:15;;;;;;;;;;;;;;;;;;4964775;28;19925;-89
2023/10/10 15:31:41;;;;;;;;;;;;;;;;;;4957088;28;19918;-89
2023/10/10 15:34:07;;;;;;;;;;;;;;;;;;4957133;28;20008;-89
2023/10/10 15:36:36;;;;;;;;;;;;;;;;;;4953312;28;19960;-90
2023/10/10 15:39:06;;;;;;;;;;;;;;;;;;4949583;28;20303;-91
2023/10/10 15:41:32;;;;;;;;;;;;;;;;;;4955767;28;19926;-89
2023/10/10 15:44:02;;;;;;;;;;;;;;;;;;4963251;28;20512;-88
2023/10/10 15:46:28;;;;;;;;;;;;;;;;;;4962568;28;19926;-90
2023/10/10 15:48:55;;;;;;;;;;;;;;;;;;4956690;28;20203;-88
2023/10/10 15:51:21;;;;;;;;;;;;;;;;;;4954071;28;20478;-88
2023/10/10 15:53:47;;;;;;;;;;;;;;;;;;4955932;28;19950;-89
2023/10/10 15:56:17;;;;;;;;;;;;;;;;;;4946778;28;19965;-89
2023/10/10 15:58:43;;;;;;;;;;;;;;;;;;4957411;28;19918;-91
2023/10/10 16:01:09;;;;;;;;;;;;;;;;;;4951396;28;19915;-91
2023/10/10 16:03:35;;;;;;;;;;;;;;;;;;4956892;28;19921;-91
2023/10/10 16:06:08;;;;;;;;;;;;;;;;;;4956937;28;20421;-91
2023/10/10 16:08:40;;;;;;;;;;;;;;;;;;4958037;28;19957;-91
2023/10/10 16:11:06;;;;;;;;;;;;;;;;;;4957712;28;19922;-91
2023/10/10 16:13:37;;;;;;;;;;;;;;;;;;4970760;28;19941;-92
2023/10/10 16:16:05;;;;;;;;;;;;;;;;;;4956825;28;19937;-91
2023/10/10 16:18:33;;;;;;;;;;;;;;;;;;4971179;28;19925;-91
2023/10/10 16:20:59;;;;;;;;;;;;;;;;;;4953213;28;20451;-91
2023/10/10 16:23:25;;;;;;;;;;;;;;;;;;4956131;28;19969;-91
2023/10/10 16:26:04;;;;;;;;;;;;;;;;;;4968968;28;20008;-91
2023/10/10 16:28:36;;;;;;;;;;;;;;;;;;4955155;28;19922;-92
2023/10/10 16:31:03;;;;;;;;;;;;;;;;;;4954608;28;20001;-91
2023/10/10 16:33:29;;;;;;;;;;;;;;;;;;4957008;28;19919;-91
2023/10/10 16:35:59;;;;;;;;;;;;;;;;;;4952947;28;19920;-92
2023/10/10 16:38:25;;;;;;;;;;;;;;;;;;4954227;28;19946;-91
2023/10/10 16:40:51;;;;;;;;;;;;;;;;;;4953794;28;19914;-91
2023/10/10 16:43:17;;;;;;;;;;;;;;;;;;4957061;28;19937;-91
2023/10/10 16:45:49;;;;;;;;;;;;;;;;;;4956691;28;19914;-91
2023/10/10 16:51:01;;;;;;;;;;;;;;;;;;4960688;28;20374;-91
2023/10/10 16:53:28;;;;;;;;;;;;;;;;;;4957408;28;19921;-91
2023/10/10 16:56:07;;;;;;;;;;;;;;;;;;4963411;28;19922;-90
2023/10/10 16:58:33;;;;;;;;;;;;;;;;;;4956235;28;19910;-90
2023/10/10 17:01:00;;;;;;;;;;;;;;;;;;4955447;28;19919;-91
2023/10/10 17:03:26;;;;;;;;;;;;;;;;;;4961938;28;19938;-91
2023/10/10 17:05:52;;;;;;;;;;;;;;;;;;4954649;28;19914;-91
2023/10/10 17:08:18;;;;;;;;;;;;;;;;;;4955115;28;19925;-91
2023/10/10 17:10:46;;;;;;;;;;;;;;;;;;4967689;28;20147;-90
2023/10/10 17:13:13;;;;;;;;;;;;;;;;;;4976954;28;19950;-93
2023/10/10 17:15:43;;;;;;;;;;;;;;;;;;4986287;28;19961;-93
2023/10/10 17:18:13;;;;;;;;;;;;;;;;;;4977977;28;20009;-92
2023/10/10 17:20:42;;;;;;;;;;;;;;;;;;4973006;28;19964;-91
2023/10/10 17:23:13;;;;;;;;;;;;;;;;;;4975310;28;20004;-91
2023/10/10 17:25:39;;;;;;;;;;;;;;;;;;4973243;28;19913;-91
2023/10/10 17:28:05;;;;;;;;;;;;;;;;;;4970805;28;19933;-92
2023/10/10 17:30:34;;;;;;;;;;;;;;;;;;4973184;28;19968;-92
2023/10/10 17:33:01;;;;;;;;;;;;;;;;;;4972084;28;20362;-92
2023/10/10 17:35:29;;;;;;;;;;;;;;;;;;4986346;28;19988;-92
2023/10/10 17:37:56;;;;;;;;;;;;;;;;;;4970798;28;19922;-91
2023/10/10 17:40:22;;;;;;;;;;;;;;;;;;4970733;28;20354;-92
2023/10/10 17:42:48;;;;;;;;;;;;;;;;;;4973977;28;20403;-92
2023/10/10 17:45:14;;;;;;;;;;;;;;;;;;4974498;28;19922;-92
2023/10/10 17:47:40;;;;;;;;;;;;;;;;;;4970622;28;19926;-92
2023/10/10 17:50:08;;;;;;;;;;;;;;;;;;4990520;28;19937;-92
2023/10/10 17:52:34;;;;;;;;;;;;;;;;;;4971787;28;20520;-91
2023/10/10 17:55:01;;;;;;;;;;;;;;;;;;4975571;28;19922;-93
2023/10/10 17:57:27;;;;;;;;;;;;;;;;;;4978577;28;20346;-92
2023/10/10 17:59:53;;;;;;;;;;;;;;;;;;4971950;28;19980;-91
2023/10/10 18:02:24;;;;;;;;;;;;;;;;;;4969434;28;19945;-91
2023/10/10 18:04:50;;;;;;;;;;;;;;;;;;4964988;28;20076;-92
2023/10/10 18:07:22;;;;;;;;;;;;;;;;;;4973566;28;19914;-91
2023/10/10 18:09:55;;;;;;;;;;;;;;;;;;4968855;28;20301;-92
2023/10/10 18:12:21;;;;;;;;;;;;;;;;;;4972357;28;19922;-88
2023/10/10 18:14:47;;;;;;;;;;;;;;;;;;4972456;28;19968;-93
2023/10/10 18:17:13;;;;;;;;;;;;;;;;;;4977519;28;19914;-93
2023/10/10 18:19:40;;;;;;;;;;;;;;;;;;4969052;28;20386;-92
2023/10/10 18:22:06;;;;;;;;;;;;;;;;;;4965046;28;19949;-92
2023/10/10 18:24:35;;;;;;;;;;;;;;;;;;4971581;28;19998;-92
2023/10/10 18:27:02;;;;;;;;;;;;;;;;;;4981928;28;21797;-93
2023/10/10 18:29:28;;;;;;;;;;;;;;;;;;4970505;28;19996;-89
2023/10/10 18:31:57;;;;;;;;;;;;;;;;;;4974184;28;19925;-89
2023/10/10 18:34:31;;;;;;;;;;;;;;;;;;4970729;28;20437;-90
2023/10/10 18:36:57;;;;;;;;;;;;;;;;;;4970618;28;19902;-91
2023/10/10 18:39:30;;;;;;;;;;;;;;;;;;4967433;28;20336;-91
2023/10/10 18:41:56;;;;;;;;;;;;;;;;;;4984054;28;19918;-91
2023/10/10 18:44:22;;;;;;;;;;;;;;;;;;4973329;28;19917;-92
2023/10/10 18:46:48;;;;;;;;;;;;;;;;;;4972257;28;19921;-91
2023/10/10 18:49:15;;;;;;;;;;;;;;;;;;4972003;28;19952;-93
2023/10/10 18:51:42;;;;;;;;;;;;;;;;;;4972047;28;19992;-93
2023/10/10 18:54:08;;;;;;;;;;;;;;;;;;4988881;28;19937;-92
2023/10/10 18:56:44;;;;;;;;;;;;;;;;;;4989263;28;19914;-93
2023/10/10 18:59:11;;;;;;;;;;;;;;;;;;4984823;28;19914;-93
2023/10/10 19:04:24;;;;;;;;;;;;;;;;;;4975169;28;20595;-93
2023/10/10 19:06:53;;;;;;;;;;;;;;;;;;4985784;23;19966;-90
2023/10/10 19:09:25;;;;;;;;;;;;;;;;;;4930713;28;20006;-90
2023/10/10 19:11:57;;;;;;;;;;;;;;;;;;4925653;29;20299;-90
2023/10/10 19:14:25;;;;;;;;;;;;;;;;;;4930737;29;20391;-90
2023/10/10 19:16:53;;;;;;;;;;;;;;;;;;4947424;28;19919;-90
2023/10/10 19:19:19;;;;;;;;;;;;;;;;;;4926743;29;20226;-90
2023/10/10 19:21:47;;;;;;;;;;;;;;;;;;4946200;28;19957;-90
2023/10/10 19:24:14;;;;;;;;;;;;;;;;;;4929716;29;20006;-90
2023/10/10 19:26:41;;;;;;;;;;;;;;;;;;4949493;28;19914;-90
2023/10/10 19:29:10;;;;;;;;;;;;;;;;;;4947144;28;19954;-90
2023/10/10 19:34:10;;;;;;;;;;;;;;;;;;5020955;28;19925;-90
2023/10/10 19:36:36;;;;;;;;;;;;;;;;;;5006882;28;20004;-89